Rosarnese

La Rosarnese soffre ma poi batte la Sangiorgese [FOTO]

Pazza partita al Giovanni Paolo II di Rosarno, dove Rosarnese e Sangiorgese hanno dato vita ad una sfida scoppiettante e ricca di colpi di scena come testimonia il risultato finale di 4-3. Novanta minuti...

Rosarnese vittoria al fotofinish sul campo dello Sport Palmi [FOTO]

Buona gara giocata sul rettangolo del Lopresti, tra Sport Palmi e Rosarnese in una giornata piovosa, finita a favore della squadra ospite guidata dal tecnico Zungri. Partita equilibrata nel primo tempo, con gioco prevalentemente sviluppato...

La Rosarnese battezza il ritorno nel suo stadio con una vittoria [FOTO]

Seconda vittoria su due per la Rosarnese, che batte il Saline Joniche imponendosi per 2-1. Per il ritorno a casa, sul “Giovanni Paolo II”, da segnalare la presenza sugli spalti dei ragazzini del settore...

A Rosarno riapre lo stadio “Giovanni Paolo II”

Dopo più di un anno di lavori che hanno riguardato il manto erboso, l’impianto d’illuminazione e le recinzioni, finalmente lo stadio “Giovanni Paolo II” di Rosarno viene ufficialmente riaperto. Grande entusiasmo dunque tra le...

La Rosarnese incassa la terza vittoria battendo la Juventus Club

Terza vittoria consecutiva per i Giovanissimi Under 15 della Rosarnese, che nella gara di domenica sorsa hanno superato sul neutro di San Ferdinando la Juventus Club per 2-0 e si trovano in testa a...
DataCasaRisultatiTrasfertaOra
2023-04-23 14:30:0023/04/23- 14:30:0014:30
2023-04-16 14:30:0016/04/23- 14:30:0014:30
2023-03-25 14:30:0025/03/23- 14:30:0014:30
2023-03-18 14:30:0018/03/23- 14:30:0014:30
2023-03-12 14:30:0012/03/23- 14:30:0014:30
2023-03-05 14:30:0005/03/23- 14:30:0014:30
2023-02-18 14:30:0018/02/23- 14:30:0014:30
2023-02-11 14:30:0011/02/23- 14:30:0014:30
2023-02-05 14:30:0005/02/23- 14:30:0014:30
2023-01-28 14:30:0028/01/23- 14:30:0014:30
2023-01-21 14:30:0021/01/23- 14:30:0014:30
2023-01-14 14:30:0014/01/23- 14:30:0014:30
2022-12-18 14:30:0018/12/22- 14:30:0014:30
2022-12-11 14:30:0011/12/22- 14:30:0014:30
2022-12-04 14:30:0004/12/22- 14:30:0014:30
2022-11-27 14:30:0027/11/22- 14:30:0014:30
2022-11-12 14:30:0012/11/224 - 3 14:30:0014:30
2022-11-05 14:30:0005/11/220 - 1 14:30:0014:30
2022-10-30 14:30:0030/10/222 - 1 14:30:0014:30
2022-10-23 14:30:0023/10/220 - 1 14:30:0014:30
2022-04-10 14:30:0010/04/225 - 1 14:30:0014:30
2022-04-03 14:30:0003/04/221 - 7 14:30:0014:30
2022-03-27 14:30:0027/03/223 - 2 14:30:0014:30
2022-03-20 14:30:0020/03/224 - 0 14:30:0014:30
2022-03-13 14:30:0013/03/223 - 5 14:30:0014:30
2022-03-06 14:30:0006/03/222 - 1 14:30:0014:30
2022-02-27 14:30:0027/02/222 - 4 14:30:0014:30
2022-02-20 14:30:0020/02/224 - 0 14:30:0014:30
2022-02-13 14:30:0013/02/221 - 2 14:30:0014:30
2022-02-06 14:30:0006/02/221 - 2 14:30:0014:30
2022-01-30 14:30:0030/01/220 - 2 14:30:0014:30
2022-01-23 14:30:0023/01/222 - 0 14:30:0014:30
2021-12-19 14:30:0019/12/211 - 4 14:30:0014:30
2021-12-12 14:30:0012/12/212 - 2 14:30:0014:30
2021-12-05 14:30:0005/12/210 - 2 14:30:0014:30
2021-11-28 14:30:0028/11/211 - 0 14:30:0014:30
2021-11-20 14:30:0020/11/211 - 2 14:30:0014:30
2021-11-14 14:30:0014/11/212 - 0 14:30:0014:30